createdAt,value
2022-08-11T00:01:26.477Z,2.00
2022-08-11T00:03:43.779Z,1.90
2022-08-11T00:05:56.808Z,1.70
2022-08-11T00:07:59.439Z,2.13
2022-08-11T00:10:02.379Z,2.10
2022-08-11T00:12:12.399Z,2.25
2022-08-11T00:14:18.645Z,2.47
2022-08-11T00:16:24.030Z,2.35
2022-08-11T00:18:26.376Z,1.75
2022-08-11T00:20:33.742Z,2.20
2022-08-11T00:22:38.887Z,2.40
2022-08-11T00:24:53.740Z,1.90
2022-08-11T00:26:58.245Z,2.20
2022-08-11T00:29:10.194Z,2.00
2022-08-11T00:31:21.341Z,2.20
2022-08-11T00:33:44.176Z,2.88
2022-08-11T00:35:53.753Z,1.90
2022-08-11T00:38:00.142Z,2.38
2022-08-11T00:40:10.188Z,2.13
2022-08-11T00:42:27.661Z,2.25
2022-08-11T00:44:38.578Z,2.70
2022-08-11T00:46:46.675Z,2.30
2022-08-11T00:49:16.214Z,2.20
2022-08-11T00:51:28.817Z,2.58
2022-08-11T00:54:20.426Z,2.65
2022-08-11T00:56:37.689Z,2.20
2022-08-11T00:58:51.707Z,2.50
2022-08-11T01:01:09.830Z,1.80
2022-08-11T01:03:18.219Z,2.20
2022-08-11T01:05:46.156Z,2.40
2022-08-11T01:08:02.155Z,2.58
2022-08-11T01:10:22.296Z,2.42
2022-08-11T01:12:36.401Z,2.30
2022-08-11T01:15:15.507Z,2.30
2022-08-11T01:17:29.590Z,2.38
2022-08-11T01:20:47.969Z,2.45
2022-08-11T01:22:33.358Z,2.47
2022-08-11T01:25:05.427Z,2.88
2022-08-11T01:27:22.853Z,2.47
2022-08-11T01:30:12.771Z,2.40
2022-08-11T01:32:40.599Z,2.22
2022-08-11T01:35:03.770Z,2.05
2022-08-11T01:37:25.116Z,2.67
2022-08-11T01:39:52.049Z,2.50
2022-08-11T01:42:50.149Z,2.40
2022-08-11T01:45:30.311Z,2.42
2022-08-11T01:48:05.438Z,2.60
2022-08-11T01:50:21.586Z,2.13
2022-08-11T01:52:34.748Z,2.28
2022-08-11T01:55:04.666Z,2.35
2022-08-11T01:57:29.506Z,2.22
2022-08-11T01:59:54.762Z,2.90
2022-08-11T02:02:21.327Z,2.15
2022-08-11T02:04:35.653Z,2.47
2022-08-11T02:07:02.570Z,2.60
2022-08-11T02:09:49.559Z,1.90
2022-08-11T02:11:59.071Z,2.40
2022-08-11T02:14:16.480Z,1.98
2022-08-11T02:16:37.249Z,1.80
2022-08-11T02:19:01.035Z,2.05
2022-08-11T02:21:36.049Z,2.10
2022-08-11T02:24:08.105Z,1.80
2022-08-11T02:26:14.939Z,1.90
2022-08-11T02:28:16.627Z,2.22
2022-08-11T02:30:25.554Z,1.98
2022-08-11T02:32:58.103Z,1.70
2022-08-11T02:35:16.661Z,2.28
2022-08-11T02:37:27.618Z,2.10
2022-08-11T02:39:43.076Z,2.10
2022-08-11T02:42:35.312Z,1.92
2022-08-11T02:44:55.691Z,2.47
2022-08-11T02:47:22.117Z,2.33
2022-08-11T02:49:47.271Z,2.53
2022-08-11T02:52:25.155Z,2.65
2022-08-11T02:54:34.779Z,2.67
2022-08-11T02:56:52.171Z,1.98
2022-08-11T02:59:15.429Z,2.40
2022-08-11T03:01:28.629Z,2.28
2022-08-11T03:03:38.306Z,2.60
2022-08-11T03:05:52.721Z,2.60
2022-08-11T03:08:14.708Z,2.53
2022-08-11T03:10:32.778Z,2.42
2022-08-11T03:12:59.128Z,2.22
2022-08-11T03:15:22.564Z,2.30
2022-08-11T03:17:30.181Z,2.30
2022-08-11T03:19:56.662Z,2.13
2022-08-11T03:22:33.542Z,2.60
2022-08-11T03:24:59.724Z,2.38
2022-08-11T03:27:11.154Z,2.13
2022-08-11T03:29:37.641Z,2.33
2022-08-11T03:32:02.088Z,2.67
2022-08-11T03:34:17.914Z,2.60
2022-08-11T03:37:15.052Z,2.40
2022-08-11T03:39:21.187Z,2.15
2022-08-11T03:42:01.996Z,2.38
2022-08-11T03:44:43.534Z,2.13
2022-08-11T03:47:03.632Z,2.72
2022-08-11T03:49:17.661Z,2.72
2022-08-11T03:51:51.539Z,2.83
2022-08-11T03:54:01.885Z,2.60
2022-08-11T03:56:47.948Z,2.65
2022-08-11T03:59:21.968Z,2.40
2022-08-11T04:01:54.587Z,2.38
2022-08-11T04:04:45.208Z,2.47
2022-08-11T04:06:53.208Z,2.40
2022-08-11T04:09:10.202Z,3.10
2022-08-11T04:11:26.917Z,2.92
2022-08-11T04:14:30.281Z,2.97
2022-08-11T04:16:44.468Z,3.30
2022-08-11T04:19:30.034Z,3.70
2022-08-11T04:21:59.426Z,4.07
2022-08-11T04:24:50.625Z,3.65
2022-08-11T04:27:25.012Z,4.15
2022-08-11T04:30:05.608Z,4.50
2022-08-11T04:32:45.720Z,3.65
2022-08-11T04:35:00.106Z,2.85
2022-08-11T04:37:28.795Z,2.70
2022-08-11T04:40:01.387Z,2.75
2022-08-11T04:42:40.569Z,2.53
2022-08-11T04:45:07.606Z,2.50
2022-08-11T04:48:04.300Z,2.67
2022-08-11T04:51:08.671Z,3.45
2022-08-11T04:53:38.277Z,2.92
2022-08-11T04:56:34.916Z,3.08
2022-08-11T04:59:14.495Z,2.83
2022-08-11T05:01:43.166Z,2.58
2022-08-11T05:04:03.586Z,2.50
2022-08-11T05:06:15.712Z,2.30
2022-08-11T05:08:24.324Z,2.22
2022-08-11T05:11:05.509Z,2.42
2022-08-11T05:13:27.864Z,2.38
2022-08-11T05:16:05.669Z,2.38
2022-08-11T05:18:38.499Z,2.00
2022-08-11T05:21:21.610Z,2.20
2022-08-11T05:23:45.635Z,2.80
2022-08-11T05:26:45.430Z,2.17
2022-08-11T05:28:56.655Z,2.33
2022-08-11T05:31:26.391Z,2.70
2022-08-11T05:33:55.004Z,2.58
2022-08-11T05:36:27.486Z,2.72
2022-08-11T05:38:52.251Z,2.30
2022-08-11T05:41:14.591Z,2.30
2022-08-11T05:43:36.283Z,2.45
2022-08-11T05:46:03.847Z,2.28
2022-08-11T05:48:26.105Z,2.28
2022-08-11T05:50:47.130Z,2.58
2022-08-11T05:53:09.275Z,2.70
2022-08-11T05:55:34.225Z,2.35
2022-08-11T05:57:50.797Z,2.30
2022-08-11T06:00:11.013Z,2.35
2022-08-11T06:02:13.906Z,1.77
2022-08-11T06:04:21.578Z,2.55
2022-08-11T06:06:25.643Z,2.83
2022-08-11T06:08:33.255Z,2.20
2022-08-11T06:10:41.425Z,1.90
2022-08-11T06:12:43.720Z,2.30
2022-08-11T06:14:46.764Z,2.10
2022-08-11T06:16:51.062Z,3.28
2022-08-11T06:18:53.718Z,3.10
2022-08-11T06:20:58.241Z,3.40
2022-08-11T06:23:05.417Z,2.80
2022-08-11T06:25:10.176Z,3.10
2022-08-11T06:27:20.241Z,2.78
2022-08-11T06:29:37.760Z,2.95
2022-08-11T06:31:56.913Z,2.03
2022-08-11T06:34:31.565Z,1.90
2022-08-11T06:36:50.269Z,2.17
2022-08-11T06:39:07.030Z,2.03
2022-08-11T06:41:30.503Z,1.70
2022-08-11T06:43:55.475Z,2.05
2022-08-11T06:46:08.397Z,1.98
2022-08-11T06:48:17.625Z,2.10
2022-08-11T06:50:39.833Z,2.00
2022-08-11T06:52:42.694Z,1.77
2022-08-11T06:54:57.234Z,1.77
2022-08-11T06:57:34.209Z,1.70
2022-08-11T06:59:56.544Z,2.13
2022-08-11T07:01:59.143Z,1.60
2022-08-11T07:04:09.241Z,1.65
2022-08-11T07:06:50.451Z,1.50
2022-08-11T07:09:42.974Z,1.45
2022-08-11T07:12:30.197Z,1.70
2022-08-11T07:14:51.122Z,1.83
2022-08-11T07:16:54.232Z,1.60
2022-08-11T07:19:21.331Z,1.65
2022-08-11T07:22:00.791Z,1.30
2022-08-11T07:25:01.279Z,1.63
2022-08-11T07:27:19.372Z,1.75
2022-08-11T07:29:22.545Z,1.73
2022-08-11T07:31:50.634Z,1.40
2022-08-11T07:34:18.531Z,1.30
2022-08-11T07:36:26.272Z,1.48
2022-08-11T07:38:47.310Z,1.60
2022-08-11T07:40:50.895Z,1.70
2022-08-11T07:42:54.050Z,1.80
2022-08-11T07:45:16.745Z,1.75
2022-08-11T07:47:37.322Z,1.60
2022-08-11T07:49:59.348Z,1.90
2022-08-11T07:52:21.381Z,1.48
2022-08-11T07:54:23.948Z,1.77
2022-08-11T07:56:48.751Z,1.40
2022-08-11T07:59:13.849Z,1.60
2022-08-11T08:01:41.882Z,1.67
2022-08-11T08:04:03.567Z,1.40
2022-08-11T08:06:36.141Z,1.88
2022-08-11T08:09:00.783Z,1.27
2022-08-11T08:11:27.492Z,1.42
2022-08-11T08:13:50.944Z,1.50
2022-08-11T08:16:12.593Z,1.42
2022-08-11T08:18:25.665Z,1.75
2022-08-11T08:20:34.403Z,1.65
2022-08-11T08:22:39.667Z,1.60
2022-08-11T08:24:42.967Z,1.45
2022-08-11T08:27:00.523Z,1.38
2022-08-11T08:29:23.800Z,1.55
2022-08-11T08:31:25.976Z,1.50
2022-08-11T08:33:32.410Z,1.58
2022-08-11T08:35:37.765Z,1.98
2022-08-11T08:37:59.858Z,1.80
2022-08-11T08:40:02.375Z,1.60
2022-08-11T08:42:12.646Z,1.85
2022-08-11T08:46:54.794Z,1.52
2022-08-11T08:49:01.800Z,1.30
2022-08-11T08:52:01.515Z,1.67
2022-08-11T08:54:01.682Z,1.80
2022-08-11T08:56:04.503Z,1.70
2022-08-11T08:58:07.933Z,1.40
2022-08-11T09:00:12.929Z,1.40
2022-08-11T09:02:33.907Z,1.63
2022-08-11T09:04:37.845Z,1.55
2022-08-11T09:06:40.542Z,1.50
2022-08-11T09:08:43.769Z,1.65
2022-08-11T09:11:13.618Z,1.15
2022-08-11T09:13:16.261Z,1.70
2022-08-11T09:15:19.800Z,1.55
2022-08-11T09:17:23.633Z,1.23
2022-08-11T09:19:26.738Z,1.42
2022-08-11T09:21:39.321Z,1.65
2022-08-11T09:24:21.943Z,1.58
2022-08-11T09:26:47.975Z,1.58
2022-08-11T09:28:52.355Z,1.50
2022-08-11T09:30:55.149Z,1.48
2022-08-11T09:33:00.560Z,1.30
2022-08-11T09:35:04.763Z,1.58
2022-08-11T09:37:53.653Z,1.65
2022-08-11T09:40:08.795Z,1.50
2022-08-11T09:42:11.165Z,1.60
2022-08-11T09:44:37.884Z,1.55
2022-08-11T09:46:41.637Z,1.33
2022-08-11T09:48:46.586Z,1.38
2022-08-11T09:50:51.109Z,1.38
2022-08-11T09:53:35.293Z,1.50
2022-08-11T09:55:16.274Z,1.45
2022-08-11T09:57:38.649Z,1.55
2022-08-11T09:59:41.446Z,1.65
2022-08-11T10:01:47.384Z,1.40
2022-08-11T10:03:49.544Z,1.40
2022-08-11T10:06:15.459Z,1.17
2022-08-11T10:08:19.771Z,1.05
2022-08-11T10:10:24.006Z,1.02
2022-08-11T10:12:37.306Z,1.30
2022-08-11T10:15:03.745Z,1.00
2022-08-11T10:17:08.454Z,0.90
2022-08-11T10:19:11.441Z,1.58
2022-08-11T10:21:36.276Z,1.50
2022-08-11T10:24:01.122Z,1.42
2022-08-11T10:26:27.479Z,1.50
2022-08-11T10:28:55.623Z,1.60
2022-08-11T10:31:18.024Z,1.60
2022-08-11T10:33:41.741Z,1.40
2022-08-11T10:35:49.571Z,1.40
2022-08-11T10:38:08.491Z,1.40
2022-08-11T10:40:16.194Z,1.33
2022-08-11T10:42:57.104Z,1.65
2022-08-11T10:45:01.740Z,1.70
2022-08-11T10:47:24.027Z,1.55
2022-08-11T10:49:27.300Z,1.55
2022-08-11T10:51:50.728Z,1.10
2022-08-11T10:54:12.968Z,1.50
2022-08-11T10:56:34.174Z,1.20
2022-08-11T10:58:51.034Z,1.30
2022-08-11T11:00:57.025Z,1.38
2022-08-11T11:03:05.400Z,1.40
2022-08-11T11:05:30.718Z,1.70
2022-08-11T11:07:58.300Z,1.30
2022-08-11T11:10:06.087Z,1.25
2022-08-11T11:12:34.315Z,1.33
2022-08-11T11:14:59.181Z,1.10
2022-08-11T11:17:23.767Z,1.30
2022-08-11T11:19:28.610Z,1.30
2022-08-11T11:21:31.420Z,1.38
2022-08-11T11:23:56.140Z,1.35
2022-08-11T11:26:06.950Z,1.20
2022-08-11T11:28:17.937Z,1.45
2022-08-11T11:30:19.939Z,1.60
2022-08-11T11:32:31.033Z,1.55
2022-08-11T11:34:53.401Z,1.17
2022-08-11T11:36:57.692Z,1.20
2022-08-11T11:39:00.239Z,1.38
2022-08-11T11:41:21.078Z,1.25
2022-08-11T11:43:23.124Z,1.20
2022-08-11T11:45:25.705Z,1.40
2022-08-11T11:47:27.882Z,1.30
2022-08-11T11:49:32.629Z,1.40
2022-08-11T11:51:34.622Z,1.00
2022-08-11T11:53:36.769Z,1.17
2022-08-11T11:55:39.279Z,1.88
2022-08-11T11:58:02.703Z,1.20
2022-08-11T12:00:33.737Z,1.15
2022-08-11T12:02:37.086Z,1.17
2022-08-11T12:04:43.476Z,1.48
2022-08-11T12:06:45.395Z,1.10
2022-08-11T12:08:50.729Z,1.20
2022-08-11T12:11:18.016Z,1.48
2022-08-11T12:13:38.402Z,1.40
2022-08-11T12:16:31.515Z,1.15
2022-08-11T12:18:02.815Z,0.93
2022-08-11T12:20:05.454Z,1.25
2022-08-11T12:22:46.032Z,1.30
2022-08-11T12:25:06.835Z,0.75
2022-08-11T12:27:21.853Z,1.23
2022-08-11T12:29:28.262Z,1.10
2022-08-11T12:31:30.831Z,1.10
2022-08-11T12:33:35.139Z,1.00
2022-08-11T12:35:40.574Z,1.40
2022-08-11T12:38:09.917Z,1.00
2022-08-11T12:40:43.634Z,1.08
2022-08-11T12:43:24.432Z,1.20
2022-08-11T12:45:42.952Z,1.15
2022-08-11T12:48:59.026Z,1.65
2022-08-11T12:50:56.959Z,1.27
2022-08-11T12:52:59.487Z,1.30
2022-08-11T12:55:14.136Z,1.00
2022-08-11T12:57:38.024Z,1.35
2022-08-11T12:59:59.923Z,1.10
2022-08-11T13:02:22.003Z,1.02
2022-08-11T13:04:46.097Z,1.17
2022-08-11T13:06:52.680Z,1.00
2022-08-11T13:09:00.973Z,1.13
2022-08-11T13:11:22.909Z,1.17
2022-08-11T13:13:55.408Z,1.27
2022-08-11T13:15:52.522Z,1.20
2022-08-11T13:17:55.914Z,1.48
2022-08-11T13:20:00.011Z,1.10
2022-08-11T13:22:06.239Z,1.20
2022-08-11T13:24:08.357Z,1.10
2022-08-11T13:26:11.305Z,1.25
2022-08-11T13:28:13.403Z,0.90
2022-08-11T13:30:39.103Z,1.00
2022-08-11T13:32:45.287Z,1.05
2022-08-11T13:34:48.104Z,1.10
2022-08-11T13:36:55.798Z,1.13
2022-08-11T13:38:58.885Z,1.00
2022-08-11T13:41:01.526Z,0.95
2022-08-11T13:43:03.654Z,1.10
2022-08-11T13:45:07.577Z,1.08
2022-08-11T13:47:13.260Z,1.00
2022-08-11T13:49:17.535Z,1.30
2022-08-11T13:51:36.300Z,1.20
2022-08-11T13:53:39.121Z,1.40
2022-08-11T13:55:52.119Z,1.30
2022-08-11T13:58:08.650Z,1.27
2022-08-11T14:00:25.043Z,1.30
2022-08-11T14:02:31.748Z,1.13
2022-08-11T14:04:42.758Z,1.23
2022-08-11T14:06:53.546Z,1.35
2022-08-11T14:08:56.240Z,1.30
2022-08-11T14:12:23.071Z,1.20
2022-08-11T14:13:48.478Z,1.30
2022-08-11T14:15:52.908Z,1.20
2022-08-11T14:18:11.720Z,1.45
2022-08-11T14:20:38.273Z,1.10
2022-08-11T14:22:42.644Z,1.17
2022-08-11T14:24:49.825Z,1.10
2022-08-11T14:26:52.976Z,1.13
2022-08-11T14:28:55.280Z,1.40
2022-08-11T14:31:01.218Z,1.20
2022-08-11T14:33:16.520Z,0.98
2022-08-11T14:35:20.115Z,1.20
2022-08-11T14:37:25.494Z,0.95
2022-08-11T14:39:37.754Z,1.00
2022-08-11T14:42:11.287Z,1.35
2022-08-11T14:44:34.630Z,1.10
2022-08-11T14:46:55.580Z,0.85
2022-08-11T14:48:58.187Z,1.10
2022-08-11T14:51:00.427Z,1.35
2022-08-11T14:53:07.182Z,1.30
2022-08-11T14:55:27.911Z,1.20
2022-08-11T14:57:55.288Z,1.10
2022-08-11T14:59:57.825Z,1.02
2022-08-11T15:02:21.207Z,1.15
2022-08-11T15:04:35.827Z,0.80
2022-08-11T15:06:39.033Z,1.10
2022-08-11T15:08:56.707Z,1.25
2022-08-11T15:10:58.741Z,0.98
2022-08-11T15:13:02.253Z,1.42
2022-08-11T15:15:25.416Z,2.00
2022-08-11T15:17:33.700Z,1.67
2022-08-11T15:20:04.989Z,1.40
2022-08-11T15:22:28.064Z,1.70
2022-08-11T15:24:31.251Z,1.25
2022-08-11T15:27:01.355Z,1.20
2022-08-11T15:29:23.623Z,1.13
2022-08-11T15:31:49.511Z,1.20
2022-08-11T15:34:12.645Z,1.25
2022-08-11T15:36:38.282Z,1.48
2022-08-11T15:38:47.365Z,1.20
2022-08-11T15:41:09.663Z,0.95
2022-08-11T15:43:39.426Z,1.42
2022-08-11T15:45:49.210Z,1.23
2022-08-11T15:48:05.979Z,1.10
2022-08-11T15:50:13.985Z,1.10
2022-08-11T15:52:23.440Z,1.20
2022-08-11T15:54:28.962Z,1.02
2022-08-11T15:56:33.006Z,1.40
2022-08-11T15:59:10.817Z,1.10
2022-08-11T16:01:43.820Z,1.00
2022-08-11T16:04:13.180Z,0.90
2022-08-11T16:06:16.414Z,0.85
2022-08-11T16:08:32.696Z,1.10
2022-08-11T16:10:36.643Z,1.00
2022-08-11T16:13:05.976Z,1.67
2022-08-11T16:15:29.596Z,1.70
2022-08-11T16:17:34.818Z,1.50
2022-08-11T16:19:40.052Z,1.38
2022-08-11T16:21:44.848Z,1.60
2022-08-11T16:23:48.746Z,1.20
2022-08-11T16:27:05.522Z,1.20
2022-08-11T16:28:15.304Z,1.63
2022-08-11T16:30:17.976Z,1.20
2022-08-11T16:32:23.775Z,1.33
2022-08-11T16:34:44.702Z,1.40
2022-08-11T16:37:05.151Z,1.50
2022-08-11T16:39:08.398Z,1.30
2022-08-11T16:41:13.998Z,1.42
2022-08-11T16:43:37.337Z,1.50
2022-08-11T16:45:59.659Z,1.20
2022-08-11T16:48:35.006Z,1.23
2022-08-11T16:50:25.207Z,1.48
2022-08-11T16:52:27.126Z,1.10
2022-08-11T16:54:29.539Z,1.52
2022-08-11T16:56:51.221Z,1.30
2022-08-11T16:59:17.335Z,1.83
2022-08-11T17:01:23.074Z,1.65
2022-08-11T17:03:44.658Z,2.10
2022-08-11T17:06:11.238Z,1.83
2022-08-11T17:08:54.252Z,1.58
2022-08-11T17:11:21.514Z,1.38
2022-08-11T17:13:47.653Z,1.35
2022-08-11T17:16:07.112Z,1.60
2022-08-11T17:18:34.612Z,1.27
2022-08-11T17:20:43.661Z,1.15
2022-08-11T17:23:04.793Z,1.20
2022-08-11T17:25:09.648Z,1.17
2022-08-11T17:27:19.033Z,1.20
2022-08-11T17:29:24.936Z,1.20
2022-08-11T17:32:02.763Z,1.08
2022-08-11T17:34:26.388Z,1.20
2022-08-11T17:36:28.321Z,1.10
2022-08-11T17:38:34.162Z,1.48
2022-08-11T17:40:38.977Z,1.70
2022-08-11T17:43:02.284Z,1.48
2022-08-11T17:45:24.415Z,1.67
2022-08-11T17:47:46.563Z,2.03
2022-08-11T17:49:49.108Z,2.40
2022-08-11T17:52:11.867Z,2.15
2022-08-11T17:54:47.146Z,2.40
2022-08-11T17:57:21.381Z,2.55
2022-08-11T17:59:43.799Z,1.75
2022-08-11T18:01:53.934Z,1.92
2022-08-11T18:03:59.266Z,8.55
2022-08-11T18:06:03.530Z,8.15
2022-08-11T18:08:27.869Z,14.13
2022-08-11T18:10:50.188Z,23.55
2022-08-11T18:13:15.256Z,37.92
2022-08-11T18:15:35.691Z,34.22
2022-08-11T18:17:56.748Z,21.17
2022-08-11T18:20:17.162Z,13.35
2022-08-11T18:22:43.133Z,8.25
2022-08-11T18:25:12.258Z,4.82
2022-08-11T18:27:36.623Z,4.07
2022-08-11T18:29:59.951Z,4.15
2022-08-11T18:32:27.121Z,3.28
2022-08-11T18:35:00.444Z,2.53
2022-08-11T18:37:29.562Z,4.20
2022-08-11T18:39:56.304Z,2.97
2022-08-11T18:42:29.719Z,2.38
2022-08-11T18:44:53.360Z,2.55
2022-08-11T18:47:16.371Z,1.95
2022-08-11T18:50:03.566Z,1.67
2022-08-11T18:52:25.508Z,2.13
2022-08-11T18:54:50.009Z,1.90
2022-08-11T18:57:16.414Z,1.70
2022-08-11T18:59:38.880Z,1.88
2022-08-11T19:01:59.730Z,1.52
2022-08-11T19:04:23.332Z,1.50
2022-08-11T19:06:52.393Z,1.40
2022-08-11T19:09:17.571Z,1.48
2022-08-11T19:11:42.808Z,1.40
2022-08-11T19:14:05.553Z,1.30
2022-08-11T19:16:27.019Z,1.60
2022-08-11T19:18:49.933Z,1.55
2022-08-11T19:21:12.800Z,1.50
2022-08-11T19:23:37.615Z,1.70
2022-08-11T19:25:59.180Z,1.67
2022-08-11T19:28:23.022Z,1.40
2022-08-11T19:30:44.923Z,2.15
2022-08-11T19:33:05.612Z,1.77
2022-08-11T19:35:27.071Z,1.50
2022-08-11T19:37:48.926Z,1.73
2022-08-11T19:40:12.397Z,2.17
2022-08-11T19:42:34.554Z,1.80
2022-08-11T19:44:55.236Z,1.98
2022-08-11T19:47:17.569Z,2.00
2022-08-11T19:49:39.041Z,1.80
2022-08-11T19:52:01.122Z,1.65
2022-08-11T19:54:22.779Z,2.00
2022-08-11T19:56:43.873Z,1.67
2022-08-11T19:59:05.057Z,2.05
2022-08-11T20:01:25.329Z,2.10
2022-08-11T20:03:46.202Z,2.17
2022-08-11T20:06:07.348Z,1.90
2022-08-11T20:08:28.131Z,2.45
2022-08-11T20:10:50.950Z,2.13
2022-08-11T20:13:13.908Z,1.80
2022-08-11T20:15:44.503Z,1.50
2022-08-11T20:18:06.177Z,1.50
2022-08-11T20:20:28.808Z,1.63
2022-08-11T20:22:49.820Z,1.73
2022-08-11T20:25:11.854Z,1.63
2022-08-11T20:27:34.171Z,1.60
2022-08-11T20:29:54.858Z,1.50
2022-08-11T20:32:15.459Z,1.42
2022-08-11T20:34:36.167Z,1.80
2022-08-11T20:36:56.925Z,1.70
2022-08-11T20:39:18.518Z,1.95
2022-08-11T20:41:58.566Z,1.77
2022-08-11T20:44:21.194Z,1.92
2022-08-11T20:46:44.338Z,1.90
2022-08-11T20:49:08.988Z,1.40
2022-08-11T20:51:34.007Z,1.58
2022-08-11T20:54:05.513Z,2.10
2022-08-11T20:56:28.510Z,2.10
2022-08-11T21:01:38.323Z,2.17
2022-08-11T21:04:00.673Z,2.00
2022-08-11T21:06:31.644Z,2.05
2022-08-11T21:08:56.366Z,2.38
2022-08-11T21:11:27.893Z,2.00
2022-08-11T21:13:52.687Z,3.40
2022-08-11T21:16:26.037Z,3.28
2022-08-11T21:18:49.758Z,3.45
2022-08-11T21:21:16.424Z,3.17
2022-08-11T21:23:37.647Z,3.33
2022-08-11T21:26:11.954Z,3.60
2022-08-11T21:28:35.892Z,2.85
2022-08-11T21:30:58.419Z,2.70
2022-08-11T21:33:20.556Z,2.47
2022-08-11T21:35:45.205Z,2.50
2022-08-11T21:38:08.981Z,2.65
2022-08-11T21:40:30.348Z,2.63
2022-08-11T21:42:55.601Z,2.50
2022-08-11T21:45:17.574Z,3.00
2022-08-11T21:47:42.989Z,2.55
2022-08-11T21:50:05.001Z,2.53
2022-08-11T21:52:25.747Z,2.70
2022-08-11T21:54:46.219Z,2.63
2022-08-11T21:57:07.082Z,2.63
2022-08-11T21:59:29.765Z,2.70
2022-08-11T22:01:51.614Z,2.60
2022-08-11T22:04:13.542Z,2.00
2022-08-11T22:06:35.782Z,2.25
2022-08-11T22:08:56.705Z,2.55
2022-08-11T22:11:32.048Z,2.15
2022-08-11T22:14:00.723Z,2.03
2022-08-11T22:16:27.083Z,2.08
2022-08-11T22:18:49.188Z,2.00
2022-08-11T22:21:11.730Z,2.33
2022-08-11T22:23:39.928Z,2.33
2022-08-11T22:26:07.410Z,2.00
2022-08-11T22:28:32.687Z,2.30
2022-08-11T22:30:53.462Z,1.83
2022-08-11T22:33:16.009Z,2.05
2022-08-11T22:35:36.967Z,1.98
2022-08-11T22:37:58.297Z,2.17
2022-08-11T22:40:19.428Z,1.85
2022-08-11T22:42:39.859Z,1.60
2022-08-11T22:45:00.377Z,2.17
2022-08-11T22:47:22.403Z,1.83
2022-08-11T22:49:58.104Z,1.65
2022-08-11T22:52:20.016Z,1.70
2022-08-11T22:54:40.707Z,1.77
2022-08-11T22:57:01.797Z,1.80
2022-08-11T22:59:24.372Z,1.60
2022-08-11T23:01:54.690Z,2.10
2022-08-11T23:04:19.956Z,1.88
2022-08-11T23:06:41.037Z,2.13
2022-08-11T23:09:02.764Z,2.38
2022-08-11T23:11:24.247Z,2.25
2022-08-11T23:13:45.923Z,1.60
2022-08-11T23:16:06.717Z,2.00
2022-08-11T23:18:27.771Z,1.92
2022-08-11T23:20:50.431Z,1.60
2022-08-11T23:23:16.225Z,2.28
2022-08-11T23:25:37.356Z,2.28
2022-08-11T23:28:00.164Z,2.20
2022-08-11T23:30:20.669Z,2.15
2022-08-11T23:32:45.655Z,2.58
2022-08-11T23:35:38.374Z,2.15
2022-08-11T23:37:51.632Z,1.65
2022-08-11T23:40:12.191Z,2.13
2022-08-11T23:42:32.783Z,2.22
2022-08-11T23:44:56.714Z,2.15
2022-08-11T23:47:19.648Z,2.00
2022-08-11T23:49:41.472Z,1.65
2022-08-11T23:52:03.221Z,2.05
2022-08-11T23:54:24.391Z,1.70
2022-08-11T23:56:46.239Z,1.70
2022-08-11T23:59:09.502Z,1.80
